Time;durP1;ratioP1;P1;durP2;ratioP2;P2;SDS_P1;SDS_P2;PMS_P1;PMS_P2;Temp;Humidity;BMP_temperature;BMP_pressure;BME280_temperature;BME280_humidity;BME280_pressure;Samples;Min_cycle;Max_cycle;Signal;HPM_P1;HPM_P2
2023/02/07 00:01:58;;;;;;;20.35;11.55;;;;;;;-0.03;100.00;103343.94;5200478;28;20056;-72
2023/02/07 00:04:28;;;;;;;20.98;11.70;;;;;;;-0.07;100.00;103338.59;5199541;28;20055;-73
2023/02/07 00:06:58;;;;;;;21.33;11.23;;;;;;;-0.05;100.00;103332.72;5199296;28;20021;-73
2023/02/07 00:09:29;;;;;;;23.27;11.90;;;;;;;-0.04;100.00;103336.19;5205424;28;20190;-72
2023/02/07 00:11:59;;;;;;;21.08;12.40;;;;;;;0.00;100.00;103326.13;5211967;28;20113;-72
2023/02/07 00:14:29;;;;;;;23.70;12.68;;;;;;;0.04;100.00;103326.34;5207919;28;20052;-71
2023/02/07 00:17:00;;;;;;;23.73;12.60;;;;;;;0.01;100.00;103326.19;5209206;28;20021;-72
2023/02/07 00:19:30;;;;;;;24.02;13.05;;;;;;;-0.03;100.00;103330.22;5208338;28;20029;-73
2023/02/07 00:22:01;;;;;;;24.67;13.88;;;;;;;-0.03;100.00;103328.53;5207213;28;20534;-73
2023/02/07 00:24:31;;;;;;;26.75;14.00;;;;;;;-0.04;100.00;103315.63;5200426;28;20120;-73
2023/02/07 00:27:01;;;;;;;24.40;13.13;;;;;;;-0.11;100.00;103316.97;5199049;28;20440;-72
2023/02/07 00:29:31;;;;;;;25.52;13.05;;;;;;;-0.13;100.00;103310.00;5196288;28;20035;-72
2023/02/07 00:32:02;;;;;;;26.92;13.75;;;;;;;-0.16;100.00;103309.84;5200170;28;20379;-73
2023/02/07 00:34:35;;;;;;;23.27;12.98;;;;;;;-0.18;100.00;103312.31;5199055;28;20075;-72
2023/02/07 00:37:05;;;;;;;22.52;12.68;;;;;;;-0.25;100.00;103317.09;5198081;28;20033;-72
2023/02/07 00:39:37;;;;;;;23.42;12.75;;;;;;;-0.19;100.00;103318.25;5198004;28;20068;-72
2023/02/07 00:42:07;;;;;;;20.63;11.75;;;;;;;-0.17;100.00;103313.22;5199563;28;20033;-73
2023/02/07 00:44:37;;;;;;;19.50;11.18;;;;;;;-0.24;100.00;103313.72;5199219;28;20032;-73
2023/02/07 00:47:08;;;;;;;20.92;11.43;;;;;;;-0.25;100.00;103320.53;5195951;28;20548;-74
2023/02/07 00:49:38;;;;;;;22.02;11.15;;;;;;;-0.28;100.00;103319.47;5199703;28;20026;-73
2023/02/07 00:52:08;;;;;;;22.02;11.55;;;;;;;-0.35;100.00;103322.53;5199193;28;20434;-72
2023/02/07 00:54:38;;;;;;;21.00;11.48;;;;;;;-0.39;100.00;103330.91;5198972;28;20029;-72
2023/02/07 00:57:09;;;;;;;22.05;12.00;;;;;;;-0.47;100.00;103317.66;5196865;28;20037;-72
2023/02/07 00:59:39;;;;;;;23.08;12.25;;;;;;;-0.61;100.00;103315.13;5199112;28;20021;-72
2023/02/07 01:02:09;;;;;;;21.58;12.30;;;;;;;-0.56;100.00;103318.84;5199637;28;20288;-72
2023/02/07 01:04:40;;;;;;;20.13;11.80;;;;;;;-0.43;100.00;103309.31;5198777;28;20039;-73
2023/02/07 01:07:10;;;;;;;23.23;12.80;;;;;;;-0.55;100.00;103311.22;5197649;28;20561;-72
2023/02/07 01:09:40;;;;;;;25.23;13.57;;;;;;;-0.65;100.00;103308.09;5200934;28;20041;-72
2023/02/07 01:12:11;;;;;;;23.98;13.35;;;;;;;-0.72;100.00;103316.28;5201770;28;20108;-72
2023/02/07 01:14:41;;;;;;;24.50;13.90;;;;;;;-0.74;100.00;103318.75;5201183;28;20021;-72
2023/02/07 01:17:11;;;;;;;28.88;14.25;;;;;;;-0.77;100.00;103318.59;5202801;28;20052;-74
2023/02/07 01:19:41;;;;;;;25.15;13.77;;;;;;;-0.82;100.00;103317.47;5201039;28;20067;-72
2023/02/07 01:22:12;;;;;;;26.08;12.93;;;;;;;-0.77;100.00;103310.00;5200720;28;20029;-73
2023/02/07 01:24:42;;;;;;;25.52;14.25;;;;;;;-0.93;100.00;103302.28;5200939;28;20056;-73
2023/02/07 01:27:12;;;;;;;25.92;14.32;;;;;;;-0.98;100.00;103303.72;5201094;28;20606;-72
2023/02/07 01:29:42;;;;;;;30.70;15.30;;;;;;;-0.99;100.00;103302.84;5201201;28;20049;-72
2023/02/07 01:32:13;;;;;;;31.73;15.63;;;;;;;-1.01;100.00;103311.25;5202941;28;20040;-73
2023/02/07 01:34:43;;;;;;;27.20;15.07;;;;;;;-1.01;100.00;103298.41;5201390;28;20051;-72
2023/02/07 01:37:14;;;;;;;29.27;15.45;;;;;;;-1.01;100.00;103294.19;5202668;28;20196;-73
2023/02/07 01:39:45;;;;;;;31.23;15.70;;;;;;;-1.03;100.00;103293.19;5200736;28;20028;-73
2023/02/07 01:42:17;;;;;;;26.65;14.43;;;;;;;-1.04;100.00;103293.13;5202009;28;20021;-73
2023/02/07 01:44:50;;;;;;;27.67;15.45;;;;;;;-1.06;100.00;103295.59;5199860;28;20534;-72
2023/02/07 01:47:22;;;;;;;26.48;14.45;;;;;;;-1.15;100.00;103283.94;5198642;28;20027;-72
2023/02/07 01:49:56;;;;;;;26.80;13.82;;;;;;;-1.36;100.00;103296.50;5202458;28;20071;-72
2023/02/07 01:52:49;;;;;;;27.27;14.07;;;;;;;-1.32;100.00;103301.00;5201212;28;20387;-72
2023/02/07 01:55:27;;;;;;;27.58;14.07;;;;;;;-1.45;100.00;103298.53;5195662;28;20029;-74
2023/02/07 01:57:59;;;;;;;28.08;14.90;;;;;;;-1.44;100.00;103297.72;5199867;28;20052;-72
2023/02/07 02:00:29;;;;;;;30.85;15.10;;;;;;;-1.30;100.00;103293.34;5199069;28;20026;-72
2023/02/07 02:03:00;;;;;;;28.50;14.45;;;;;;;-1.46;100.00;103286.50;5202176;28;20036;-73
2023/02/07 02:05:32;;;;;;;27.60;14.70;;;;;;;-1.46;100.00;103289.06;5201150;28;20033;-72
2023/02/07 02:08:03;;;;;;;26.40;14.57;;;;;;;-1.53;100.00;103291.22;5196019;28;20379;-72
2023/02/07 02:10:42;;;;;;;31.33;15.45;;;;;;;-1.52;100.00;103285.28;5199585;28;20152;-72
2023/02/07 02:13:43;;;;;;;27.08;13.25;;;;;;;-1.53;100.00;103284.41;5201697;28;20189;-72
2023/02/07 02:16:24;;;;;;;25.85;13.75;;;;;;;-1.46;100.00;103280.47;5202714;28;20044;-72
2023/02/07 02:19:10;;;;;;;24.63;13.40;;;;;;;-1.39;100.00;103283.47;5200165;28;20059;-72
2023/02/07 02:21:55;;;;;;;27.35;14.45;;;;;;;-1.47;100.00;103276.16;5198692;28;20475;-72
2023/02/07 02:24:25;;;;;;;25.80;14.27;;;;;;;-1.45;100.00;103261.72;5201552;28;20064;-72
2023/02/07 02:27:28;;;;;;;26.13;13.32;;;;;;;-1.37;100.00;103265.63;5199814;28;20049;-72
2023/02/07 02:30:10;;;;;;;28.08;14.00;;;;;;;-1.35;100.00;103259.78;5199565;28;20106;-72
2023/02/07 02:33:08;;;;;;;26.75;14.23;;;;;;;-1.61;100.00;103259.16;5198577;28;20526;-72
2023/02/07 02:36:09;;;;;;;26.08;14.13;;;;;;;-1.73;100.00;103253.31;5197644;28;20067;-74
2023/02/07 02:38:51;;;;;;;26.38;14.10;;;;;;;-1.74;100.00;103249.00;5197919;28;20018;-72
2023/02/07 02:41:27;;;;;;;29.92;14.75;;;;;;;-1.70;100.00;103246.69;5200724;28;20302;-74
2023/02/07 02:44:03;;;;;;;25.92;13.60;;;;;;;-1.46;100.00;103239.47;5203061;28;20509;-72
2023/02/07 02:46:37;;;;;;;27.58;14.40;;;;;;;-1.36;100.00;103231.47;5199966;28;20033;-73
2023/02/07 02:49:10;;;;;;;25.25;13.00;;;;;;;-1.42;100.00;103233.72;5199580;28;20033;-73
2023/02/07 02:51:41;;;;;;;26.13;13.75;;;;;;;-1.51;100.00;103222.94;5198385;28;20486;-73
2023/02/07 02:54:32;;;;;;;24.25;12.75;;;;;;;-1.75;100.00;103230.16;5200745;28;20071;-72
2023/02/07 02:57:26;;;;;;;24.15;12.32;;;;;;;-1.70;100.00;103225.28;5199517;28;20538;-73
2023/02/07 02:59:56;;;;;;;24.77;13.45;;;;;;;-1.83;100.00;103214.28;5198618;28;20456;-72
2023/02/07 03:02:59;;;;;;;27.15;13.82;;;;;;;-1.98;100.00;103218.53;5199126;28;20036;-72
2023/02/07 03:06:19;;;;;;;25.77;13.20;;;;;;;-1.96;100.00;103225.50;5199407;28;20033;-72
2023/02/07 03:08:56;;;;;;;28.88;14.63;;;;;;;-1.91;100.00;103211.28;5199364;28;20397;-73
2023/02/07 03:11:32;;;;;;;26.85;14.02;;;;;;;-1.90;100.00;103212.16;5200726;28;20033;-72
2023/02/07 03:14:32;;;;;;;28.20;14.52;;;;;;;-1.86;100.00;103212.41;5199855;28;20036;-73
2023/02/07 03:17:24;;;;;;;28.73;14.73;;;;;;;-1.90;100.00;103209.59;5197996;28;20021;-72
2023/02/07 03:19:58;;;;;;;30.70;14.82;;;;;;;-1.86;100.00;103209.84;5199266;28;20018;-72
2023/02/07 03:22:29;;;;;;;29.23;15.50;;;;;;;-1.88;100.00;103217.44;5200682;28;20022;-73
2023/02/07 03:25:02;;;;;;;30.13;15.45;;;;;;;-1.94;100.00;103218.81;5199953;28;20496;-72
2023/02/07 03:27:33;;;;;;;31.60;16.45;;;;;;;-1.92;100.00;103224.91;5195089;28;20034;-73
2023/02/07 03:30:09;;;;;;;32.15;16.23;;;;;;;-1.85;100.00;103227.00;5197170;28;20220;-72
2023/02/07 03:32:41;;;;;;;;;;;;;;;-1.89;100.00;103240.44;5197599;28;20124;-73
2023/02/07 03:35:18;;;;;;;34.00;16.42;;;;;;;-1.99;100.00;103227.88;5199364;28;20283;-72
2023/02/07 03:37:54;;;;;;;33.45;16.73;;;;;;;-1.93;100.00;103232.47;5200095;28;20017;-73
2023/02/07 03:40:28;;;;;;;30.90;16.38;;;;;;;-2.07;100.00;103238.47;5197310;28;20075;-73
2023/02/07 03:43:04;;;;;;;32.25;16.50;;;;;;;-2.04;100.00;103239.56;5198483;28;20437;-72
2023/02/07 03:45:34;;;;;;;36.08;18.10;;;;;;;-2.10;100.00;103239.22;5195236;28;20454;-72
2023/02/07 03:48:05;;;;;;;38.08;17.65;;;;;;;-2.00;100.00;103245.75;5197867;28;20021;-74
2023/02/07 03:50:35;;;;;;;36.20;18.55;;;;;;;-2.09;100.00;103238.41;5199751;28;20045;-73
2023/02/07 03:53:05;;;;;;;36.28;18.77;;;;;;;-2.05;100.00;103242.91;5198189;28;20148;-72
2023/02/07 03:55:36;;;;;;;37.53;19.10;;;;;;;-2.12;100.00;103237.34;5198909;28;20029;-73
2023/02/07 03:58:07;;;;;;;40.45;19.20;;;;;;;-2.13;100.00;103233.88;5200014;28;20022;-72
2023/02/07 04:00:38;;;;;;;41.33;20.33;;;;;;;-2.16;100.00;103240.53;5197107;28;20033;-73
2023/02/07 04:03:08;;;;;;;36.10;19.52;;;;;;;-2.11;100.00;103236.53;5199270;28;20079;-73
2023/02/07 04:05:38;;;;;;;42.75;20.77;;;;;;;-2.12;100.00;103238.25;5197571;28;20133;-72
2023/02/07 04:08:08;;;;;;;39.92;20.33;;;;;;;-2.17;100.00;103242.19;5197427;28;20017;-72
2023/02/07 04:10:39;;;;;;;41.30;19.95;;;;;;;-2.17;100.00;103243.88;5198901;28;20043;-71
2023/02/07 04:13:09;;;;;;;43.55;21.88;;;;;;;-2.04;100.00;103246.34;5199082;28;20459;-72
2023/02/07 04:15:39;;;;;;;43.47;21.77;;;;;;;-2.13;100.00;103241.56;5198715;28;20525;-74
2023/02/07 04:18:10;;;;;;;45.55;22.17;;;;;;;-2.13;100.00;103238.16;5197504;28;20467;-74
2023/02/07 04:20:40;;;;;;;40.80;21.23;;;;;;;-2.21;100.00;103237.69;5199608;28;20096;-73
2023/02/07 04:23:10;;;;;;;41.08;20.92;;;;;;;-2.14;100.00;103237.25;5200616;28;20029;-71
2023/02/07 04:25:41;;;;;;;41.35;20.67;;;;;;;-2.08;100.00;103244.41;5197706;28;20442;-72
2023/02/07 04:28:11;;;;;;;42.35;21.17;;;;;;;-2.15;100.00;103245.72;5198291;28;20017;-72
2023/02/07 04:30:41;;;;;;;39.33;19.27;;;;;;;-2.15;100.00;103235.47;5199763;28;20493;-73
2023/02/07 04:33:12;;;;;;;40.70;19.85;;;;;;;-2.11;100.00;103231.44;5198476;28;20025;-73
2023/02/07 04:35:42;;;;;;;39.60;19.42;;;;;;;-2.15;100.00;103235.47;5196685;28;20022;-73
2023/02/07 04:38:13;;;;;;;39.80;20.45;;;;;;;-2.33;100.00;103236.97;5196744;28;20034;-72
2023/02/07 04:40:43;;;;;;;41.15;20.55;;;;;;;-2.27;100.00;103236.47;5196891;28;20088;-72
2023/02/07 04:43:13;;;;;;;41.33;20.17;;;;;;;-2.14;100.00;103234.69;5199400;28;20557;-74
2023/02/07 04:45:47;;;;;;;39.53;20.05;;;;;;;-2.02;100.00;103237.09;5206459;28;20028;-72
2023/02/07 04:48:17;;;;;;;40.15;20.48;;;;;;;-2.35;100.00;103238.56;5201648;28;20040;-72
2023/02/07 04:50:47;;;;;;;39.88;19.65;;;;;;;-2.48;100.00;103236.06;5198822;28;20467;-72
2023/02/07 04:53:18;;;;;;;37.92;19.45;;;;;;;-2.49;100.00;103236.88;5201803;28;20030;-73
2023/02/07 04:55:49;;;;;;;38.97;19.77;;;;;;;-2.55;100.00;103241.63;5203005;28;20046;-71
2023/02/07 04:58:21;;;;;;;42.50;21.20;;;;;;;-2.37;100.00;103236.72;5198747;28;20047;-72
2023/02/07 05:00:53;;;;;;;39.70;20.27;;;;;;;-2.42;100.00;103244.13;5202393;28;20304;-74
2023/02/07 05:03:23;;;;;;;45.55;21.30;;;;;;;-2.48;100.00;103233.50;5203127;28;20021;-73
2023/02/07 05:05:54;;;;;;;42.42;21.13;;;;;;;-2.52;100.00;103249.50;5202663;28;20637;-72
2023/02/07 05:08:24;;;;;;;41.70;20.17;;;;;;;-2.41;100.00;103245.91;5200636;28;20112;-72
2023/02/07 05:10:55;;;;;;;38.40;19.33;;;;;;;-2.30;100.00;103238.84;5202707;28;20040;-72
2023/02/07 05:13:25;;;;;;;42.20;20.63;;;;;;;-2.45;100.00;103238.84;5202108;28;20032;-72
2023/02/07 05:15:55;;;;;;;39.38;19.60;;;;;;;-2.56;100.00;103244.97;5199481;28;20055;-74
2023/02/07 05:18:26;;;;;;;39.67;20.15;;;;;;;-2.55;100.00;103248.44;5197972;28;20040;-72
2023/02/07 05:20:57;;;;;;;41.70;19.67;;;;;;;-2.70;100.00;103258.63;5203201;28;20035;-72
2023/02/07 05:23:27;;;;;;;37.95;19.40;;;;;;;-2.74;100.00;103264.34;5201035;28;20065;-71
2023/02/07 05:25:58;;;;;;;36.53;19.58;;;;;;;-2.73;100.00;103273.78;5203324;28;20138;-73
2023/02/07 05:28:28;;;;;;;39.38;19.27;;;;;;;-2.82;100.00;103273.22;5202200;28;20104;-72
2023/02/07 05:30:58;;;;;;;39.88;18.60;;;;;;;-2.83;100.00;103276.56;5199557;28;20116;-73
2023/02/07 05:33:29;;;;;;;38.65;19.33;;;;;;;-2.91;100.00;103279.44;5203076;28;20021;-73
2023/02/07 05:36:01;;;;;;;39.83;19.27;;;;;;;-2.89;100.00;103268.53;5198942;28;20582;-72
2023/02/07 05:38:32;;;;;;;36.55;18.23;;;;;;;-2.84;100.00;103271.38;5199647;28;20071;-74
2023/02/07 05:41:02;;;;;;;36.13;17.20;;;;;;;-2.68;100.00;103267.28;5201016;28;20546;-73
2023/02/07 05:43:32;;;;;;;35.63;16.77;;;;;;;-2.72;100.00;103267.88;5199766;28;20380;-73
2023/02/07 05:46:03;;;;;;;35.55;17.38;;;;;;;-2.86;100.00;103255.94;5198003;28;20042;-72
2023/02/07 05:48:33;;;;;;;34.63;17.15;;;;;;;-2.74;100.00;103268.56;5201237;28;20287;-72
2023/02/07 05:51:03;;;;;;;34.33;17.08;;;;;;;-2.98;100.00;103267.09;5201005;28;20482;-72
2023/02/07 05:53:34;;;;;;;35.53;17.95;;;;;;;-3.07;100.00;103269.06;5201842;28;20112;-73
2023/02/07 05:56:04;;;;;;;35.28;16.45;;;;;;;-3.02;100.00;103271.13;5200604;28;20033;-73
2023/02/07 05:58:35;;;;;;;30.90;16.15;;;;;;;-3.00;100.00;103278.91;5202527;28;20024;-72
2023/02/07 06:01:05;;;;;;;31.67;16.20;;;;;;;-2.98;100.00;103277.31;5200222;28;20279;-72
2023/02/07 06:03:35;;;;;;;36.80;17.90;;;;;;;-3.10;100.00;103277.44;5201854;28;20100;-72
2023/02/07 06:06:06;;;;;;;35.03;17.33;;;;;;;-3.24;100.00;103288.47;5199165;28;20045;-72
2023/02/07 06:08:36;;;;;;;38.03;18.80;;;;;;;-3.23;100.00;103290.25;5201386;28;20030;-72
2023/02/07 06:11:06;;;;;;;40.78;20.73;;;;;;;-3.15;100.00;103294.19;5201597;28;20069;-73
2023/02/07 06:13:38;;;;;;;40.22;18.73;;;;;;;-3.34;100.00;103291.22;5200996;28;20029;-72
2023/02/07 06:16:11;;;;;;;42.17;20.33;;;;;;;-3.21;100.00;103287.81;5199729;28;20090;-72
2023/02/07 06:18:41;;;;;;;40.10;19.75;;;;;;;-3.09;100.00;103284.34;5201676;28;20017;-73
2023/02/07 06:21:12;;;;;;;44.28;19.90;;;;;;;-3.09;100.00;103276.66;5201045;28;20029;-73
2023/02/07 06:23:42;;;;;;;43.15;19.33;;;;;;;-3.14;100.00;103280.63;5199765;28;20033;-74
2023/02/07 06:26:12;;;;;;;39.35;19.08;;;;;;;-3.32;100.00;103289.69;5199123;28;20025;-74
2023/02/07 06:28:43;;;;;;;41.53;18.58;;;;;;;-3.27;100.00;103293.41;5199229;28;20386;-74
2023/02/07 06:31:13;;;;;;;35.22;18.13;;;;;;;-3.21;100.00;103296.34;5197176;28;20044;-73
2023/02/07 06:33:44;;;;;;;38.63;18.65;;;;;;;-3.38;100.00;103294.41;5198668;28;20055;-73
2023/02/07 06:36:14;;;;;;;40.05;19.52;;;;;;;-3.37;100.00;103291.03;5200336;28;20075;-73
2023/02/07 06:38:44;;;;;;;41.13;19.75;;;;;;;-3.34;100.00;103287.81;5197861;28;20021;-73
2023/02/07 06:41:15;;;;;;;36.83;18.75;;;;;;;-3.26;100.00;103299.38;5200674;28;20025;-73
2023/02/07 06:43:45;;;;;;;40.85;18.67;;;;;;;-3.44;100.00;103288.00;5200062;28;20029;-73
2023/02/07 06:46:15;;;;;;;39.30;18.38;;;;;;;-3.16;100.00;103296.63;5203502;28;20487;-75
2023/02/07 06:48:46;;;;;;;39.15;18.48;;;;;;;-3.21;100.00;103298.91;5197871;28;20090;-73
2023/02/07 06:51:16;;;;;;;37.75;18.90;;;;;;;-3.25;100.00;103302.06;5200776;28;20029;-73
2023/02/07 06:53:46;;;;;;;40.70;20.02;;;;;;;-3.22;100.00;103309.03;5201849;28;20029;-74
2023/02/07 06:56:16;;;;;;;40.40;20.08;;;;;;;-3.24;100.00;103298.72;5200574;28;20033;-74
2023/02/07 06:58:47;;;;;;;39.00;19.13;;;;;;;-3.28;100.00;103303.53;5200518;28;20028;-73
2023/02/07 07:01:18;;;;;;;43.53;21.02;;;;;;;-3.32;100.00;103305.03;5202527;28;20025;-73
2023/02/07 07:03:50;;;;;;;43.17;21.30;;;;;;;-3.25;100.00;103307.16;5201778;28;20418;-73
2023/02/07 07:06:20;;;;;;;43.35;20.27;;;;;;;-3.11;100.00;103301.25;5199738;28;20036;-75
2023/02/07 07:08:51;;;;;;;42.45;20.30;;;;;;;-3.28;100.00;103312.09;5199467;28;20022;-73
2023/02/07 07:11:21;;;;;;;39.35;17.80;;;;;;;-3.33;100.00;103308.34;5201954;28;20025;-73
2023/02/07 07:13:51;;;;;;;36.35;18.63;;;;;;;-3.25;100.00;103299.50;5201946;28;20033;-73
2023/02/07 07:16:22;;;;;;;35.72;17.17;;;;;;;-2.88;100.00;103298.44;5200990;28;20060;-72
2023/02/07 07:18:52;;;;;;;34.60;17.58;;;;;;;-2.86;100.00;103286.63;5201853;28;20387;-73
2023/02/07 07:21:23;;;;;;;34.17;17.10;;;;;;;-3.01;100.00;103298.47;5201657;28;20040;-73
2023/02/07 07:23:54;;;;;;;32.65;16.42;;;;;;;-3.10;100.00;103292.78;5201287;28;20033;-72
2023/02/07 07:26:24;;;;;;;37.28;16.70;;;;;;;-3.16;100.00;103294.94;5199859;28;20553;-73
2023/02/07 07:28:58;;;;;;;35.83;17.58;;;;;;;-3.25;100.00;103307.16;5201298;28;20025;-72
2023/02/07 07:31:29;;;;;;;36.83;18.40;;;;;;;-3.14;100.00;103301.06;5201496;28;20059;-72
2023/02/07 07:33:59;;;;;;;38.97;18.75;;;;;;;-3.00;100.00;103300.22;5199722;28;20029;-73
2023/02/07 07:36:30;;;;;;;39.03;18.73;;;;;;;-2.75;100.00;103285.63;5200839;28;20494;-72
2023/02/07 07:39:00;;;;;;;41.65;20.83;;;;;;;-2.58;100.00;103292.66;5200621;28;20028;-72
2023/02/07 07:41:30;;;;;;;40.03;19.58;;;;;;;-2.41;100.00;103286.84;5195872;28;20044;-72
2023/02/07 07:44:01;;;;;;;42.00;21.08;;;;;;;-2.28;100.00;103286.81;5197162;28;20026;-73
2023/02/07 07:46:31;;;;;;;40.97;19.88;;;;;;;-2.08;100.00;103285.38;5200124;28;20503;-72
2023/02/07 07:49:01;;;;;;;40.78;20.42;;;;;;;-1.82;100.00;103292.13;5200593;28;20510;-73
2023/02/07 07:51:32;;;;;;;37.33;19.23;;;;;;;-1.76;100.00;103291.59;5198849;28;20045;-71
2023/02/07 07:54:02;;;;;;;38.00;19.38;;;;;;;-1.57;100.00;103291.84;5200558;28;20025;-72
2023/02/07 07:56:34;;;;;;;36.70;19.95;;;;;;;-1.44;100.00;103290.03;5199796;28;20391;-72
2023/02/07 07:59:04;;;;;;;36.30;18.15;;;;;;;-0.35;100.00;103286.59;5199702;28;20025;-74
2023/02/07 08:01:35;;;;;;;30.20;16.88;;;;;;;-0.64;95.88;103279.94;5200074;28;20364;-75
2023/02/07 08:04:05;;;;;;;33.33;17.45;;;;;;;-0.22;97.31;103283.84;5182976;28;20053;-72
2023/02/07 08:06:35;;;;;;;29.83;16.40;;;;;;;0.75;93.11;103270.72;5199263;28;20540;-72
2023/02/07 08:09:06;;;;;;;28.40;15.85;;;;;;;2.75;88.16;103264.06;5205032;22;20050;-76
2023/02/07 08:11:36;;;;;;;26.08;14.95;;;;;;;3.78;80.19;103249.84;5179148;28;20038;-78
2023/02/07 08:14:06;;;;;;;23.52;14.15;;;;;;;3.92;74.41;103255.50;5180171;28;20037;-78
2023/02/07 08:16:37;;;;;;;25.48;14.98;;;;;;;3.49;74.91;103264.25;5178690;28;20050;-75
2023/02/07 08:19:07;;;;;;;27.60;14.80;;;;;;;3.59;78.18;103255.19;5178535;28;20048;-77
2023/02/07 08:21:38;;;;;;;25.65;14.80;;;;;;;5.24;75.31;103259.72;5180224;28;20029;-78
2023/02/07 08:24:08;;;;;;;23.92;14.43;;;;;;;4.99;71.21;103265.91;5180516;28;20617;-77
2023/02/07 08:26:38;;;;;;;23.50;14.10;;;;;;;6.58;70.77;103270.31;5176995;28;20034;-77
2023/02/07 08:29:08;;;;;;;24.33;14.20;;;;;;;4.62;72.45;103282.88;5179395;28;20503;-77
2023/02/07 08:31:39;;;;;;;21.23;13.57;;;;;;;6.12;69.37;103276.06;5178786;28;20064;-77
2023/02/07 08:34:10;;;;;;;24.40;14.45;;;;;;;6.50;69.56;103271.84;5179915;28;20030;-78
2023/02/07 08:36:41;;;;;;;22.45;13.38;;;;;;;7.10;67.91;103268.06;5177786;28;20033;-77
2023/02/07 08:39:11;;;;;;;21.15;13.27;;;;;;;5.94;67.67;103288.56;5177626;28;20060;-77
2023/02/07 08:41:41;;;;;;;24.88;14.13;;;;;;;3.67;75.78;103297.72;5179450;28;20030;-76
2023/02/07 08:44:12;;;;;;;23.63;14.32;;;;;;;5.35;72.75;103277.34;5180279;28;20032;-75
2023/02/07 08:46:42;;;;;;;23.67;14.43;;;;;;;6.67;69.79;103273.13;5178891;28;20025;-74
2023/02/07 08:49:12;;;;;;;24.60;14.27;;;;;;;6.94;67.74;103272.00;5179776;28;20482;-75
2023/02/07 08:51:42;;;;;;;22.15;13.95;;;;;;;7.54;65.95;103278.53;5177994;28;20041;-75
2023/02/07 08:54:13;;;;;;;21.38;13.65;;;;;;;7.56;65.73;103267.28;5178436;28;20041;-76
2023/02/07 08:56:43;;;;;;;24.02;14.02;;;;;;;7.22;65.26;103268.28;5179557;28;20057;-75
2023/02/07 08:59:14;;;;;;;23.55;14.27;;;;;;;6.98;65.82;103278.16;5179503;28;20026;-76
2023/02/07 09:01:44;;;;;;;23.95;14.30;;;;;;;7.04;68.96;103278.28;5179114;28;20063;-76
2023/02/07 09:04:14;;;;;;;25.17;14.50;;;;;;;6.81;67.99;103267.41;5178875;28;20040;-74
2023/02/07 09:06:45;;;;;;;22.38;13.80;;;;;;;5.78;70.41;103281.22;5179855;28;20025;-75
2023/02/07 09:09:15;;;;;;;24.35;13.93;;;;;;;4.71;72.85;103278.88;5180044;28;20025;-75
2023/02/07 09:11:46;;;;;;;26.80;14.85;;;;;;;3.67;77.68;103282.22;5177348;28;20185;-75
2023/02/07 09:14:16;;;;;;;24.33;13.30;;;;;;;3.50;80.49;103268.63;5179620;28;20048;-75
2023/02/07 09:16:46;;;;;;;28.55;14.23;;;;;;;2.95;81.61;103269.97;5179575;28;20062;-75
2023/02/07 09:19:17;;;;;;;24.65;13.77;;;;;;;2.84;82.30;103279.03;5179262;28;20497;-75
2023/02/07 09:21:48;;;;;;;26.58;13.95;;;;;;;2.85;83.48;103285.97;5178610;28;20632;-74
2023/02/07 09:24:19;;;;;;;23.35;13.18;;;;;;;2.83;84.24;103275.56;5178449;28;20029;-75
2023/02/07 09:26:50;;;;;;;25.85;13.70;;;;;;;2.80;84.55;103283.19;5177525;28;20037;-76
2023/02/07 09:29:20;;;;;;;29.17;13.10;;;;;;;2.71;84.25;103280.22;5180386;28;20057;-76
2023/02/07 09:31:51;;;;;;;23.45;12.90;;;;;;;2.63;83.32;103278.16;5183798;28;20263;-77
2023/02/07 09:34:22;;;;;;;23.35;13.25;;;;;;;2.63;84.07;103273.91;5183512;28;20018;-76
2023/02/07 09:36:52;;;;;;;22.33;12.25;;;;;;;2.58;85.34;103266.78;5180853;28;20045;-76
2023/02/07 09:39:23;;;;;;;26.88;12.60;;;;;;;2.52;85.55;103276.88;5181198;28;20036;-76
2023/02/07 09:42:24;;;;;;;27.65;13.90;;;;;;;2.64;86.99;103277.34;5183260;28;20656;-76
2023/02/07 09:45:00;;;;;;;25.45;13.88;;;;;;;2.50;87.13;103268.19;5179309;28;20040;-77
2023/02/07 09:47:31;;;;;;;;;;;;;;;2.38;87.32;103278.03;5183006;28;20446;-76
2023/02/07 09:50:07;;;;;;;24.25;12.65;;;;;;;2.51;88.24;103273.41;5179424;28;19939;-77
2023/02/07 09:53:18;;;;;;;31.10;13.50;;;;;;;2.61;87.36;103279.81;5181459;28;20451;-76
2023/02/07 09:55:59;;;;;;;22.77;11.98;;;;;;;2.71;86.30;103282.81;5173246;28;20057;-77
2023/02/07 09:58:42;;;;;;;22.77;11.32;;;;;;;2.67;86.83;103286.09;5181766;28;20075;-72
2023/02/07 10:01:16;;;;;;;22.55;11.48;;;;;;;2.59;86.06;103282.34;5180061;28;20072;-76
2023/02/07 10:04:17;;;;;;;19.67;10.88;;;;;;;2.62;84.90;103281.56;5181114;28;20034;-76
2023/02/07 10:06:56;;;;;;;26.20;12.75;;;;;;;2.68;84.67;103282.69;5181112;28;20462;-76
2023/02/07 10:09:29;;;;;;;23.88;11.82;;;;;;;2.67;84.10;103285.25;5181658;28;20033;-77
2023/02/07 10:12:17;;;;;;;22.88;11.90;;;;;;;2.66;83.27;103288.63;5180920;28;20029;-76
2023/02/07 10:15:12;;;;;;;19.98;10.77;;;;;;;2.89;83.75;103287.84;5180259;28;20029;-77
2023/02/07 10:17:53;;;;;;;21.42;10.82;;;;;;;2.81;82.80;103282.38;5179538;28;20377;-76
2023/02/07 10:20:39;;;;;;;20.40;10.60;;;;;;;2.67;81.92;103291.25;5181224;28;20439;-76
2023/02/07 10:23:28;;;;;;;20.17;11.38;;;;;;;3.02;83.62;103292.66;5181083;28;20491;-77
2023/02/07 10:26:25;;;;;;;23.70;11.40;;;;;;;3.01;81.07;103290.91;5182078;28;20305;-77
2023/02/07 10:29:20;;;;;;;20.58;9.40;;;;;;;2.73;81.49;103288.06;5179820;28;20439;-77
2023/02/07 10:31:54;;;;;;;19.25;9.75;;;;;;;2.88;82.03;103289.50;5180911;28;20071;-77
2023/02/07 10:34:30;;;;;;;17.58;9.15;;;;;;;2.65;79.54;103302.38;5181085;28;20033;-77
2023/02/07 10:37:10;;;;;;;17.52;9.75;;;;;;;2.47;79.99;103307.66;5181317;28;20100;-78
2023/02/07 10:39:46;;;;;;;16.20;8.93;;;;;;;2.26;80.44;103306.78;5174836;28;20194;-77
2023/02/07 10:42:16;;;;;;;;;;;;;;;2.34;80.02;103307.09;5181542;28;20044;-76
2023/02/07 10:44:47;;;;;;;18.65;10.10;;;;;;;2.46;81.37;103305.00;5185632;28;19917;-75
2023/02/07 10:47:18;;;;;;;19.17;10.18;;;;;;;2.69;81.07;103299.09;5182545;28;20034;-76
2023/02/07 10:49:52;;;;;;;20.88;10.13;;;;;;;2.51;80.08;103303.50;5181440;28;20034;-76
2023/02/07 10:52:22;;;;;;;18.83;9.57;;;;;;;2.70;80.33;103300.84;5182371;28;20172;-76
2023/02/07 10:55:02;;;;;;;22.73;12.10;;;;;;;2.32;78.97;103303.59;5182303;28;20694;-76
2023/02/07 10:57:32;;;;;;;26.33;10.90;;;;;;;2.37;79.61;103296.91;5172791;28;20025;-75
2023/02/07 11:00:21;;;;;;;21.23;10.35;;;;;;;2.59;79.11;103302.09;5180759;28;20091;-76
2023/02/07 11:03:04;;;;;;;21.30;11.00;;;;;;;2.75;80.02;103301.91;5182081;28;20065;-76
2023/02/07 11:06:01;;;;;;;20.10;11.07;;;;;;;2.65;79.61;103287.75;5177051;28;20018;-76
2023/02/07 11:08:34;;;;;;;20.00;10.35;;;;;;;2.70;79.17;103291.38;5179807;28;20026;-77
2023/02/07 11:11:25;;;;;;;20.48;10.80;;;;;;;2.58;78.05;103292.59;5181547;28;20048;-76
2023/02/07 11:14:02;;;;;;;18.10;10.07;;;;;;;2.71;79.05;103293.13;5181317;28;20033;-77
2023/02/07 11:16:33;;;;;;;23.45;10.95;;;;;;;2.63;78.14;103288.50;5176112;28;20057;-77
2023/02/07 11:19:06;;;;;;;21.27;11.00;;;;;;;2.82;79.00;103284.13;5181158;28;20029;-77
2023/02/07 11:21:42;;;;;;;19.63;11.32;;;;;;;2.66;79.11;103278.31;5182121;28;20454;-76
2023/02/07 11:24:27;;;;;;;20.98;10.90;;;;;;;2.54;78.45;103280.41;5181547;28;20088;-73
2023/02/07 11:27:02;;;;;;;;;;;;;;;2.30;78.64;103277.69;5181236;28;20036;-76
2023/02/07 11:29:42;;;;;;;22.55;10.85;;;;;;;2.48;78.57;103275.00;5178963;28;19914;-76
2023/02/07 11:32:15;;;;;;;20.85;11.23;;;;;;;2.53;78.37;103270.91;5179843;28;20040;-77
2023/02/07 11:34:56;;;;;;;20.20;10.98;;;;;;;2.50;79.41;103270.78;5180285;28;20022;-76
2023/02/07 11:37:32;;;;;;;22.85;11.63;;;;;;;2.63;80.42;103260.09;5176487;28;20121;-78